METAR AND TAF INFORMATION
METAR FOR UACC
ADDS - METARS form results

(0427 UTC 01 March 2021)
Data provider http://aviationweather.gov/metar/data/
 
METAR text: UACC 010400Z 25009MPS 9999 SCT011 BKN040 M00/M02 Q1008 R22/39//40 NOSIG RMK QFE725/0967
Conditions at: UACC (ASTANA KAZAKHSTA, KZ) observed 0400 UTC 01 March 2021
Temperature: 0.0°C (32°F)
Dewpoint: -2.0°C (28°F) [RH = 86%]
Pressure (altimeter): 29.76 inches Hg (1008.0 mb)
Winds: from the WSW (250 degrees) at 20 MPH (17 knots; 8.7 m/s)
Visibility: 6 or more miles (10+ km)
Ceiling: 4000 feet AGL
Clouds: scattered clouds at 1100 feet AGL
broken clouds at 4000 feet AGL
Weather: no significant weather observed at this time

METAR text: UACC 010330Z 24009MPS 9999 SCT008 BKN040 M00/M01 Q1008 R22/39//45 NOSIG RMK QFE725/0966
Conditions at: UACC (ASTANA KAZAKHSTA, KZ) observed 0330 UTC 01 March 2021
Temperature: 0.0°C (32°F)
Dewpoint: -1.0°C (30°F) [RH = 93%]
Pressure (altimeter): 29.76 inches Hg (1008.0 mb)
Winds: from the WSW (240 degrees) at 20 MPH (17 knots; 8.7 m/s)
Visibility: 6 or more miles (10+ km)
Ceiling: 4000 feet AGL
Clouds: scattered clouds at 800 feet AGL
broken clouds at 4000 feet AGL
Weather: no significant weather observed at this time

Forecast for: UACC (ASTANA KAZAKHSTA, KZ)
Text: TAF UACC 282302Z 0100/0124 22007MPS 9999 BKN004 OVC015 TXM00/0100Z TNM07/0124Z
Forecast period: 0000 UTC 01 March 2021 to 0000 UTC 02 March 2021
Forecast type: FROM: standard forecast or significant change
Winds: from the SW (220 degrees) at 16 MPH (14 knots; 7.2 m/s)
Visibility: 6 or more miles (10+ km)
Ceiling: 400 feet AGL
Clouds: broken clouds at 400 feet AGL
overcast cloud deck at 1500 feet AGL
Weather: no significant weather forecast for this period
Text: TEMPO 0100/0105 3100 -SN DRSN BKN002
Forecast period: 0000 to 0500 UTC 01 March 2021
Forecast type: TEMPORARY: The following changes expected for less than half the time period
Visibility: 1.93 miles (3.11 km)
Ceiling: 200 feet AGL
Clouds: broken clouds at 200 feet AGL
Weather: -SN DRSN  (light snow, low drifting snow)
Text: TEMPO 0105/0114 25009G14MPS 3000 -SN BLSN
Forecast period: 0500 to 1400 UTC 01 March 2021
Forecast type: TEMPORARY: The following changes expected for less than half the time period
Winds: from the WSW (250 degrees) at 20 MPH (17 knots; 8.7 m/s)
gusting to 31 MPH (27 knots; 13.9 m/s)
Visibility: 1.86 miles (2.99 km)
Ceiling: unknown
Clouds: missing
Weather: -SN BLSN  (light snow, blowing snow)

 AIRPORT MAP

 RUNWAY INFORMATION

 AIRPORT FREQUENCIES
Type APP Name APP Frequency 124.6 MHZ
Type ATIS Name ATIS Frequency 128.3 MHZ
Type RDR Name RADAR Frequency 124.6 MHZ
Type TWR Name TWR Frequency 118.7 MHZ

 AIRPORT NEAR NAVIGATION AIDS
Type NDB Name Astana Frequency 318 KHZ
Type VOR-DME Name Astana Frequency 114200 KHZ
Type NDB Name Astana Frequency 318 KHZ



2018 Air Astana Virtual Airline